createdAt,value
2023-09-20T00:00:00.248Z,2.20
2023-09-20T00:02:27.626Z,2.25
2023-09-20T00:04:55.026Z,2.17
2023-09-20T00:07:22.338Z,2.05
2023-09-20T00:09:51.033Z,1.98
2023-09-20T00:12:18.335Z,1.90
2023-09-20T00:14:45.637Z,1.70
2023-09-20T00:17:12.934Z,2.17
2023-09-20T00:19:40.221Z,1.60
2023-09-20T00:22:07.494Z,2.00
2023-09-20T00:24:34.815Z,1.90
2023-09-20T00:27:03.915Z,2.20
2023-09-20T00:29:31.251Z,1.90
2023-09-20T00:31:58.550Z,1.75
2023-09-20T00:34:25.933Z,1.90
2023-09-20T00:36:53.190Z,2.17
2023-09-20T00:39:20.424Z,1.90
2023-09-20T00:41:47.669Z,2.00
2023-09-20T00:44:16.409Z,1.98
2023-09-20T00:46:43.817Z,2.10
2023-09-20T00:49:11.324Z,2.28
2023-09-20T00:51:38.579Z,2.00
2023-09-20T00:54:06.455Z,1.83
2023-09-20T00:56:34.569Z,2.00
2023-09-20T00:59:02.014Z,2.08
2023-09-20T01:01:30.746Z,1.85
2023-09-20T01:03:58.394Z,2.05
2023-09-20T01:06:26.081Z,1.90
2023-09-20T01:08:53.350Z,1.92
2023-09-20T01:11:21.537Z,1.73
2023-09-20T01:13:49.009Z,1.80
2023-09-20T01:16:16.292Z,1.70
2023-09-20T01:18:45.263Z,1.70
2023-09-20T01:21:12.814Z,1.70
2023-09-20T01:23:41.462Z,1.90
2023-09-20T01:26:09.080Z,2.15
2023-09-20T01:28:36.540Z,1.80
2023-09-20T01:31:03.950Z,1.77
2023-09-20T01:33:31.708Z,1.90
2023-09-20T01:35:59.121Z,1.77
2023-09-20T01:38:26.648Z,1.60
2023-09-20T01:40:55.308Z,1.70
2023-09-20T01:43:22.795Z,1.48
2023-09-20T01:45:50.062Z,1.92
2023-09-20T01:48:17.759Z,1.95
2023-09-20T01:50:45.199Z,1.98
2023-09-20T01:53:12.921Z,2.00
2023-09-20T01:55:40.380Z,2.00
2023-09-20T01:58:09.048Z,1.60
2023-09-20T02:00:36.512Z,1.77
2023-09-20T02:03:05.607Z,2.15
2023-09-20T02:05:33.014Z,2.05
2023-09-20T02:08:01.159Z,2.95
2023-09-20T02:10:28.471Z,2.20
2023-09-20T02:12:57.084Z,2.00
2023-09-20T02:15:26.746Z,1.80
2023-09-20T02:17:54.598Z,2.55
2023-09-20T02:20:24.306Z,2.00
2023-09-20T02:22:54.004Z,1.75
2023-09-20T02:25:22.413Z,2.03
2023-09-20T02:27:52.403Z,2.20
2023-09-20T02:30:20.906Z,2.25
2023-09-20T02:32:50.426Z,1.65
2023-09-20T02:35:17.857Z,2.03
2023-09-20T02:37:45.212Z,2.30
2023-09-20T02:40:12.546Z,1.63
2023-09-20T02:42:44.344Z,1.85
2023-09-20T02:45:12.446Z,4.45
2023-09-20T02:47:40.838Z,1.70
2023-09-20T02:50:10.808Z,1.63
2023-09-20T02:52:38.059Z,1.92
2023-09-20T02:55:06.471Z,1.90
2023-09-20T02:57:34.116Z,1.60
2023-09-20T03:00:01.473Z,1.98
2023-09-20T03:02:29.143Z,1.70
2023-09-20T03:04:56.507Z,1.80
2023-09-20T03:07:25.166Z,2.00
2023-09-20T03:09:52.432Z,1.70
2023-09-20T03:12:19.671Z,1.67
2023-09-20T03:14:46.946Z,2.20
2023-09-20T03:17:14.198Z,2.10
2023-09-20T03:19:41.621Z,1.75
2023-09-20T03:22:08.964Z,1.80
2023-09-20T03:24:37.626Z,1.38
2023-09-20T03:27:06.102Z,1.70
2023-09-20T03:29:33.446Z,1.67
2023-09-20T03:32:00.880Z,1.95
2023-09-20T03:34:28.262Z,1.50
2023-09-20T03:36:55.574Z,1.45
2023-09-20T03:39:22.934Z,1.75
2023-09-20T03:41:51.673Z,2.00
2023-09-20T03:44:19.334Z,1.75
2023-09-20T03:46:46.594Z,1.65
2023-09-20T03:49:13.919Z,1.90
2023-09-20T03:51:41.293Z,1.73
2023-09-20T03:54:08.545Z,2.30
2023-09-20T03:56:36.351Z,2.13
2023-09-20T03:59:05.262Z,2.00
2023-09-20T04:01:34.196Z,1.88
2023-09-20T04:04:03.365Z,1.90
2023-09-20T04:06:30.690Z,1.90
2023-09-20T04:08:57.952Z,2.40
2023-09-20T04:11:25.324Z,1.83
2023-09-20T04:13:52.592Z,1.60
2023-09-20T04:16:21.268Z,1.90
2023-09-20T04:18:48.552Z,1.95
2023-09-20T04:21:15.899Z,1.75
2023-09-20T04:23:43.310Z,1.70
2023-09-20T04:26:10.698Z,2.28
2023-09-20T04:28:38.426Z,1.90
2023-09-20T04:31:05.682Z,1.92
2023-09-20T04:33:34.570Z,1.90
2023-09-20T04:36:02.110Z,2.05
2023-09-20T04:38:30.364Z,2.05
2023-09-20T04:40:58.128Z,1.98
2023-09-20T04:43:25.911Z,2.05
2023-09-20T04:45:53.436Z,1.92
2023-09-20T04:48:20.889Z,2.00
2023-09-20T04:50:51.001Z,1.70
2023-09-20T04:53:18.274Z,1.90
2023-09-20T04:55:45.659Z,1.90
2023-09-20T04:58:12.923Z,3.42
2023-09-20T05:00:42.475Z,3.53
2023-09-20T05:03:12.212Z,2.33
2023-09-20T05:05:39.679Z,2.20
2023-09-20T05:08:08.812Z,2.10
2023-09-20T05:10:36.311Z,2.13
2023-09-20T05:13:06.333Z,2.15
2023-09-20T05:15:33.890Z,1.52
2023-09-20T05:18:02.046Z,1.77
2023-09-20T05:20:30.567Z,1.85
2023-09-20T05:22:57.985Z,2.15
2023-09-20T05:25:26.673Z,2.70
2023-09-20T05:27:53.978Z,2.55
2023-09-20T05:30:21.422Z,2.72
2023-09-20T05:32:49.129Z,2.25
2023-09-20T05:35:16.759Z,2.20
2023-09-20T05:37:44.169Z,3.92
2023-09-20T05:40:11.693Z,2.78
2023-09-20T05:42:40.341Z,3.17
2023-09-20T05:45:08.818Z,2.53
2023-09-20T05:47:36.179Z,2.58
2023-09-20T05:50:04.078Z,2.38
2023-09-20T05:52:31.414Z,3.38
2023-09-20T05:54:58.641Z,3.50
2023-09-20T05:57:26.766Z,3.75
2023-09-20T05:59:56.609Z,3.40
2023-09-20T06:02:24.957Z,4.10
2023-09-20T06:04:52.221Z,4.65
2023-09-20T06:07:19.503Z,5.03
2023-09-20T06:09:47.052Z,4.32
2023-09-20T06:12:14.301Z,3.38
2023-09-20T06:17:28.290Z,3.42
2023-09-20T06:19:55.603Z,2.90
2023-09-20T06:22:22.904Z,2.35
2023-09-20T06:24:50.298Z,2.28
2023-09-20T06:27:17.600Z,3.75
2023-09-20T06:29:44.863Z,4.70
2023-09-20T06:32:12.435Z,4.32
2023-09-20T06:34:56.791Z,2.40
2023-09-20T06:37:26.355Z,2.47
2023-09-20T06:39:53.644Z,2.30
2023-09-20T06:42:20.900Z,2.10
2023-09-20T06:44:48.235Z,2.60
2023-09-20T06:47:15.492Z,2.30
2023-09-20T06:49:44.139Z,2.05
2023-09-20T06:52:11.405Z,4.20
2023-09-20T06:54:38.750Z,3.25
2023-09-20T06:57:06.797Z,4.20
2023-09-20T06:59:34.887Z,4.65
2023-09-20T07:02:02.342Z,3.85
2023-09-20T07:10:01.962Z,4.10
2023-09-20T07:12:29.270Z,4.63
2023-09-20T07:14:56.660Z,5.30
2023-09-20T07:17:24.068Z,3.40
2023-09-20T07:19:52.800Z,2.78
2023-09-20T07:22:20.136Z,3.10
2023-09-20T07:24:47.372Z,2.90
2023-09-20T07:27:16.188Z,2.63
2023-09-20T07:29:43.484Z,2.80
2023-09-20T07:32:10.813Z,2.30
2023-09-20T07:34:38.064Z,3.13
2023-09-20T07:37:05.385Z,3.30
2023-09-20T07:39:32.626Z,2.80
2023-09-20T07:41:59.898Z,3.15
2023-09-20T07:44:29.822Z,2.80
2023-09-20T07:46:57.081Z,2.78
2023-09-20T07:49:24.404Z,2.85
2023-09-20T07:51:51.728Z,3.00
2023-09-20T07:54:18.992Z,2.95
2023-09-20T07:56:46.421Z,3.00
2023-09-20T07:59:13.828Z,2.10
2023-09-20T08:01:43.312Z,2.63
2023-09-20T08:04:10.731Z,4.13
2023-09-20T08:06:38.788Z,3.88
2023-09-20T08:09:06.604Z,4.30
2023-09-20T08:11:34.534Z,4.20
2023-09-20T08:14:03.516Z,3.40
2023-09-20T08:16:46.895Z,3.00
2023-09-20T08:19:20.057Z,4.00
2023-09-20T08:21:47.924Z,2.58
2023-09-20T08:24:15.331Z,2.30
2023-09-20T08:26:42.605Z,2.20
2023-09-20T08:29:09.937Z,2.35
2023-09-20T08:31:37.373Z,2.05
2023-09-20T08:34:04.766Z,2.05
2023-09-20T08:36:33.633Z,2.42
2023-09-20T08:39:00.884Z,2.42
2023-09-20T08:41:29.673Z,3.10
2023-09-20T08:43:57.218Z,2.20
2023-09-20T08:46:25.107Z,2.40
2023-09-20T08:48:53.842Z,3.20
2023-09-20T08:51:22.888Z,2.25
2023-09-20T08:53:53.382Z,2.22
2023-09-20T08:56:21.181Z,2.08
2023-09-20T08:58:50.347Z,2.35
2023-09-20T09:01:17.828Z,2.05
2023-09-20T09:03:45.428Z,2.00
2023-09-20T09:06:13.474Z,3.28
2023-09-20T09:08:40.982Z,2.10
2023-09-20T09:11:10.028Z,1.55
2023-09-20T09:13:37.552Z,2.00
2023-09-20T09:16:07.636Z,1.70
2023-09-20T09:18:35.069Z,1.70
2023-09-20T09:21:02.461Z,1.65
2023-09-20T09:23:34.010Z,1.70
2023-09-20T09:28:30.697Z,1.73
2023-09-20T09:30:59.006Z,1.65
2023-09-20T09:33:26.427Z,1.85
2023-09-20T09:35:53.826Z,1.88
2023-09-20T09:38:21.985Z,1.65
2023-09-20T09:40:53.268Z,1.90
2023-09-20T09:43:20.862Z,1.63
2023-09-20T09:45:49.851Z,1.95
2023-09-20T09:48:17.563Z,2.20
2023-09-20T09:50:46.191Z,1.65
2023-09-20T09:53:14.941Z,1.63
2023-09-20T09:55:43.597Z,1.75
2023-09-20T09:58:11.224Z,1.60
2023-09-20T10:00:41.108Z,1.90
2023-09-20T10:03:19.287Z,1.83
2023-09-20T10:05:47.991Z,1.90
2023-09-20T10:08:19.285Z,2.00
2023-09-20T10:10:46.584Z,2.00
2023-09-20T10:13:14.859Z,1.92
2023-09-20T10:15:42.863Z,1.90
2023-09-20T10:18:12.407Z,2.28
2023-09-20T10:20:56.735Z,2.00
2023-09-20T10:23:23.997Z,1.73
2023-09-20T10:25:51.323Z,2.10
2023-09-20T10:28:18.577Z,1.77
2023-09-20T10:30:59.001Z,1.63
2023-09-20T10:33:40.747Z,2.00
2023-09-20T10:36:08.140Z,1.90
2023-09-20T10:38:35.612Z,1.60
2023-09-20T10:41:03.673Z,1.67
2023-09-20T10:43:52.401Z,1.80
2023-09-20T10:46:20.775Z,1.70
2023-09-20T10:48:51.383Z,1.70
2023-09-20T10:51:41.051Z,1.60
2023-09-20T10:54:22.097Z,1.70
2023-09-20T10:57:00.495Z,1.63
2023-09-20T10:59:28.166Z,1.73
2023-09-20T11:01:57.000Z,1.67
2023-09-20T11:04:26.512Z,1.70
2023-09-20T11:06:55.798Z,1.67
2023-09-20T11:09:23.369Z,1.80
2023-09-20T11:11:51.194Z,1.85
2023-09-20T11:14:18.516Z,1.70
2023-09-20T11:16:45.972Z,1.52
2023-09-20T11:19:13.998Z,1.83
2023-09-20T11:21:43.474Z,1.88
2023-09-20T11:24:11.288Z,1.83
2023-09-20T11:26:39.226Z,1.30
2023-09-20T11:29:08.059Z,1.80
2023-09-20T11:31:35.629Z,1.65
2023-09-20T11:34:04.373Z,1.50
2023-09-20T11:36:37.327Z,1.50
2023-09-20T11:39:06.708Z,1.70
2023-09-20T11:41:34.497Z,1.38
2023-09-20T11:44:01.880Z,1.83
2023-09-20T11:46:31.608Z,1.45
2023-09-20T11:48:59.910Z,1.70
2023-09-20T11:51:27.247Z,1.50
2023-09-20T11:53:55.824Z,1.30
2023-09-20T11:56:28.171Z,1.60
2023-09-20T11:58:55.460Z,1.20
2023-09-20T12:01:24.552Z,1.42
2023-09-20T12:03:52.033Z,1.42
2023-09-20T12:06:19.525Z,1.60
2023-09-20T12:08:46.859Z,1.55
2023-09-20T12:11:15.625Z,1.45
2023-09-20T12:13:44.421Z,1.30
2023-09-20T12:16:11.656Z,1.40
2023-09-20T12:18:39.002Z,1.40
2023-09-20T12:21:07.032Z,1.80
2023-09-20T12:23:34.437Z,1.20
2023-09-20T12:26:01.810Z,1.52
2023-09-20T12:28:29.094Z,1.40
2023-09-20T12:30:57.875Z,1.27
2023-09-20T12:33:25.375Z,1.85
2023-09-20T12:35:53.376Z,1.50
2023-09-20T12:38:20.672Z,1.10
2023-09-20T12:40:48.097Z,1.20
2023-09-20T12:43:15.830Z,1.60
2023-09-20T12:45:43.319Z,1.27
2023-09-20T12:48:12.401Z,1.98
2023-09-20T12:50:39.831Z,1.63
2023-09-20T12:53:07.199Z,1.83
2023-09-20T12:55:38.357Z,1.63
2023-09-20T12:58:06.319Z,1.35
2023-09-20T13:00:45.566Z,1.58
2023-09-20T13:03:16.406Z,1.27
2023-09-20T13:05:45.284Z,1.50
2023-09-20T13:08:12.967Z,1.30
2023-09-20T13:10:40.271Z,1.30
2023-09-20T13:13:07.735Z,1.02
2023-09-20T13:15:35.740Z,1.20
2023-09-20T13:18:03.669Z,1.40
2023-09-20T13:20:32.485Z,1.40
2023-09-20T13:22:59.863Z,1.33
2023-09-20T13:25:27.158Z,1.20
2023-09-20T13:27:54.508Z,1.48
2023-09-20T13:30:21.841Z,1.70
2023-09-20T13:32:49.197Z,1.48
2023-09-20T13:35:17.154Z,1.50
2023-09-20T13:37:46.505Z,1.52
2023-09-20T13:40:14.384Z,1.33
2023-09-20T13:42:41.812Z,1.33
2023-09-20T13:45:10.592Z,1.40
2023-09-20T13:47:38.150Z,1.60
2023-09-20T13:50:06.674Z,1.73
2023-09-20T13:52:34.088Z,1.73
2023-09-20T13:55:02.940Z,1.63
2023-09-20T13:57:30.205Z,1.42
2023-09-20T13:59:57.727Z,1.65
2023-09-20T14:02:24.980Z,2.10
2023-09-20T14:04:52.225Z,1.60
2023-09-20T14:07:19.481Z,1.40
2023-09-20T14:09:46.735Z,1.55
2023-09-20T14:12:15.477Z,1.40
2023-09-20T14:14:42.830Z,1.75
2023-09-20T14:17:10.150Z,1.77
2023-09-20T14:19:37.457Z,1.75
2023-09-20T14:22:04.920Z,1.77
2023-09-20T14:24:32.339Z,1.80
2023-09-20T14:26:59.698Z,1.63
2023-09-20T14:29:28.340Z,1.63
2023-09-20T14:31:55.625Z,1.40
2023-09-20T14:34:22.961Z,1.60
2023-09-20T14:36:50.238Z,1.70
2023-09-20T14:39:17.480Z,1.70
2023-09-20T14:41:44.798Z,1.70
2023-09-20T14:44:12.143Z,1.60
2023-09-20T14:46:40.892Z,1.58
2023-09-20T14:49:08.196Z,1.95
2023-09-20T14:51:35.511Z,1.65
2023-09-20T14:54:02.819Z,1.90
2023-09-20T14:56:30.177Z,1.40
2023-09-20T14:58:57.510Z,1.70
2023-09-20T15:01:24.808Z,1.60
2023-09-20T15:03:53.552Z,1.52
2023-09-20T15:06:22.506Z,1.60
2023-09-20T15:08:50.209Z,2.33
2023-09-20T15:11:17.745Z,1.80
2023-09-20T15:13:45.904Z,1.83
2023-09-20T15:16:14.408Z,1.73
2023-09-20T15:18:41.790Z,1.90
2023-09-20T15:21:10.589Z,1.88
2023-09-20T15:23:37.904Z,1.83
2023-09-20T15:26:11.793Z,1.50
2023-09-20T15:28:39.290Z,1.95
2023-09-20T15:31:06.914Z,1.48
2023-09-20T15:33:35.045Z,2.10
2023-09-20T15:36:03.992Z,1.77
2023-09-20T15:38:34.163Z,1.67
2023-09-20T15:41:02.291Z,1.73
2023-09-20T15:43:31.817Z,1.90
2023-09-20T15:45:59.314Z,1.50
2023-09-20T15:48:26.717Z,1.90
2023-09-20T15:50:54.136Z,1.63
2023-09-20T15:53:21.502Z,2.22
2023-09-20T15:55:50.218Z,2.00
2023-09-20T15:58:17.449Z,1.60
2023-09-20T16:00:44.687Z,1.50
2023-09-20T16:03:12.175Z,2.00
2023-09-20T16:05:39.647Z,1.75
2023-09-20T16:08:07.586Z,10.23
2023-09-20T16:10:34.842Z,2.90
2023-09-20T16:13:03.561Z,3.38
2023-09-20T16:15:30.909Z,2.05
2023-09-20T16:17:58.437Z,1.85
2023-09-20T16:20:25.909Z,2.28
2023-09-20T16:22:53.229Z,1.98
2023-09-20T16:25:20.519Z,1.90
2023-09-20T16:27:47.856Z,1.80
2023-09-20T16:30:17.572Z,2.03
2023-09-20T16:32:45.724Z,2.10
2023-09-20T16:35:13.734Z,2.05
2023-09-20T16:37:40.986Z,1.83
2023-09-20T16:40:09.365Z,1.67
2023-09-20T16:42:36.689Z,1.92
2023-09-20T16:45:04.861Z,1.65
2023-09-20T16:47:33.621Z,1.73
2023-09-20T16:50:00.912Z,1.60
2023-09-20T16:52:28.227Z,1.83
2023-09-20T16:54:55.504Z,1.80
2023-09-20T16:57:22.743Z,1.90
2023-09-20T16:59:50.057Z,1.60
2023-09-20T17:02:17.455Z,1.90
2023-09-20T17:04:46.150Z,1.88
2023-09-20T17:07:13.423Z,1.63
2023-09-20T17:09:40.707Z,1.80
2023-09-20T17:12:08.161Z,2.25
2023-09-20T17:14:35.577Z,1.90
2023-09-20T17:17:03.064Z,1.90
2023-09-20T17:19:30.511Z,1.50
2023-09-20T17:21:59.146Z,2.08
2023-09-20T17:24:26.400Z,1.75
2023-09-20T17:26:53.683Z,2.00
2023-09-20T17:29:20.986Z,1.70
2023-09-20T17:31:48.260Z,1.70
2023-09-20T17:34:15.567Z,1.90
2023-09-20T17:36:42.936Z,1.60
2023-09-20T17:39:11.658Z,1.77
2023-09-20T17:41:39.043Z,2.05
2023-09-20T17:44:06.544Z,2.00
2023-09-20T17:46:33.931Z,1.83
2023-09-20T17:49:01.223Z,2.70
2023-09-20T17:51:28.477Z,1.88
2023-09-20T17:53:55.788Z,2.20
2023-09-20T17:56:24.513Z,2.00
2023-09-20T17:58:52.058Z,2.22
2023-09-20T18:01:19.434Z,2.00
2023-09-20T18:03:47.418Z,2.20
2023-09-20T18:06:15.460Z,1.92
2023-09-20T18:08:43.767Z,1.92
2023-09-20T18:11:11.176Z,2.00
2023-09-20T18:13:40.135Z,2.08
2023-09-20T18:16:07.770Z,1.90
2023-09-20T18:18:35.246Z,2.08
2023-09-20T18:21:02.841Z,2.17
2023-09-20T18:23:30.508Z,2.10
